Time;durP1;ratioP1;P1;durP2;ratioP2;P2;SDS_P1;SDS_P2;PMS_P1;PMS_P2;Temp;Humidity;BMP_temperature;BMP_pressure;BME280_temperature;BME280_humidity;BME280_pressure;Samples;Min_cycle;Max_cycle;Signal;HPM_P1;HPM_P2
2022/05/29 00:01:16;;;;;;;15.98;4.53;;;10.30;99.90;;;;;;5071381;28;20047;-71
2022/05/29 00:03:42;;;;;;;10.02;3.67;;;10.30;99.90;;;;;;5071755;28;20048;-71
2022/05/29 00:06:09;;;;;;;15.05;4.18;;;10.30;99.90;;;;;;5071530;28;20041;-70
2022/05/29 00:08:38;;;;;;;11.75;3.45;;;10.30;99.90;;;;;;5071773;28;20132;-70
2022/05/29 00:11:08;;;;;;;14.02;4.28;;;10.30;99.90;;;;;;5071394;28;20399;-71
2022/05/29 00:13:34;;;;;;;13.82;4.40;;;10.20;99.90;;;;;;5071756;28;20063;-70
2022/05/29 00:15:59;;;;;;;14.25;3.30;;;10.20;99.90;;;;;;5070453;28;20425;-70
2022/05/29 00:18:25;;;;;;;14.07;3.70;;;10.10;99.90;;;;;;5071577;28;20402;-70
2022/05/29 00:20:57;;;;;;;13.10;3.08;;;10.10;99.90;;;;;;5070923;28;20071;-70
2022/05/29 00:23:24;;;;;;;23.48;4.38;;;10.10;99.90;;;;;;5071445;28;20040;-70
2022/05/29 00:25:52;;;;;;;17.33;3.38;;;10.10;99.90;;;;;;5071385;28;20111;-70
2022/05/29 00:28:19;;;;;;;15.50;3.65;;;10.10;99.90;;;;;;5071464;28;20418;-71
2022/05/29 00:30:45;;;;;;;11.95;3.60;;;10.20;99.90;;;;;;5070089;28;20412;-71
2022/05/29 00:33:11;;;;;;;13.48;3.38;;;10.20;99.90;;;;;;5071263;28;20482;-70
2022/05/29 00:35:40;;;;;;;11.30;3.15;;;10.20;99.90;;;;;;5071465;28;20028;-70
2022/05/29 00:38:08;;;;;;;12.57;3.72;;;10.20;99.90;;;;;;5071409;28;20036;-70
2022/05/29 00:40:43;;;;;;;15.32;4.00;;;10.30;99.90;;;;;;5070844;28;20457;-70
2022/05/29 00:43:08;;;;;;;12.45;3.42;;;10.30;99.90;;;;;;5072929;28;20044;-70
2022/05/29 00:45:59;;;;;;;12.30;3.75;;;10.20;99.90;;;;;;5073700;28;20036;-70
2022/05/29 00:48:25;;;;;;;16.98;3.72;;;10.20;99.90;;;;;;5073724;28;20410;-70
2022/05/29 00:50:54;;;;;;;15.20;3.75;;;10.20;99.90;;;;;;5074483;28;20500;-70
2022/05/29 00:53:22;;;;;;;17.13;4.75;;;10.10;99.90;;;;;;5074975;28;20028;-70
2022/05/29 00:55:53;;;;;;;18.35;4.47;;;10.10;99.90;;;;;;5074900;28;20064;-70
2022/05/29 00:58:21;;;;;;;10.88;3.80;;;10.10;99.90;;;;;;5074723;28;20045;-70
2022/05/29 01:00:49;;;;;;;16.60;3.72;;;10.10;99.90;;;;;;5073339;28;20032;-70
2022/05/29 01:03:15;;;;;;;15.80;4.45;;;10.10;99.90;;;;;;5074868;28;20032;-70
2022/05/29 01:05:41;;;;;;;11.60;3.97;;;10.10;99.90;;;;;;5073475;28;20044;-70
2022/05/29 01:08:20;;;;;;;16.48;4.43;;;10.10;99.90;;;;;;5073296;28;20039;-70
2022/05/29 01:10:48;;;;;;;11.15;4.13;;;10.10;99.90;;;;;;5074174;28;20037;-70
2022/05/29 01:13:48;;;;;;;17.08;5.18;;;10.10;99.90;;;;;;5074515;28;20123;-70
2022/05/29 01:16:23;;;;;;;13.82;3.67;;;10.10;99.90;;;;;;5066090;28;20444;-70
2022/05/29 01:19:00;;;;;;;13.00;3.88;;;10.00;99.90;;;;;;5074471;28;20036;-71
2022/05/29 01:22:03;;;;;;;13.20;3.40;;;10.00;99.90;;;;;;5072984;28;20040;-71
2022/05/29 01:25:03;;;;;;;14.37;4.40;;;10.10;99.90;;;;;;5074486;28;20051;-70
2022/05/29 01:27:50;;;;;;;13.80;4.07;;;10.10;99.90;;;;;;5074120;28;20615;-70
2022/05/29 01:30:25;;;;;;;15.02;4.38;;;10.10;99.90;;;;;;5074059;28;20048;-70
2022/05/29 01:33:32;;;;;;;16.45;5.60;;;10.10;99.90;;;;;;5074232;28;20143;-70
2022/05/29 01:36:08;;;;;;;16.40;3.50;;;10.20;99.90;;;;;;4992493;28;20100;-70
2022/05/29 01:38:45;;;;;;;14.15;3.42;;;10.20;99.90;;;;;;5063062;28;20044;-71
2022/05/29 01:41:28;;;;;;;11.82;3.83;;;10.20;99.90;;;;;;5073483;28;20440;-71
2022/05/29 01:44:18;;;;;;;13.05;3.78;;;10.20;99.90;;;;;;5072945;28;20103;-70
2022/05/29 01:46:48;;;;;;;18.52;4.80;;;10.20;99.90;;;;;;5074091;28;20037;-70
2022/05/29 01:49:28;;;;;;;8.38;3.17;;;10.30;99.90;;;;;;5073883;28;20498;-71
2022/05/29 01:52:00;;;;;;;14.85;2.80;;;10.20;99.90;;;;;;5055661;28;20045;-71
2022/05/29 01:54:32;;;;;;;13.32;3.42;;;10.30;99.90;;;;;;5072336;28;20048;-70
2022/05/29 01:57:19;;;;;;;11.30;3.05;;;10.30;99.90;;;;;;5073897;28;20440;-70
2022/05/29 02:00:00;;;;;;;12.15;4.07;;;10.20;99.90;;;;;;5072300;28;20037;-70
2022/05/29 02:02:33;;;;;;;11.18;3.83;;;10.20;99.90;;;;;;5072679;28;20044;-70
2022/05/29 02:05:01;;;;;;;12.25;3.28;;;10.30;99.90;;;;;;5072563;28;20044;-70
2022/05/29 02:07:47;;;;;;;9.38;2.95;;;10.30;99.90;;;;;;5073400;28;20402;-70
2022/05/29 02:10:23;;;;;;;10.93;3.13;;;10.20;99.90;;;;;;5073202;28;20072;-70
2022/05/29 02:13:07;;;;;;;8.93;3.78;;;10.20;99.90;;;;;;5072219;28;20043;-70
2022/05/29 02:15:41;;;;;;;14.05;3.75;;;10.30;99.90;;;;;;5072357;28;20115;-71
2022/05/29 02:18:14;;;;;;;12.70;4.32;;;10.20;99.90;;;;;;5073563;28;20525;-70
2022/05/29 02:20:44;;;;;;;12.75;3.20;;;10.20;99.90;;;;;;5072996;28;20071;-71
2022/05/29 02:23:16;;;;;;;18.15;4.40;;;10.20;99.90;;;;;;5072038;28;20176;-70
2022/05/29 02:25:42;;;;;;;16.08;4.45;;;10.20;99.90;;;;;;5073042;28;20383;-70
2022/05/29 02:28:24;;;;;;;15.30;3.60;;;10.20;99.90;;;;;;5073196;28;20059;-70
2022/05/29 02:31:02;;;;;;;12.17;3.87;;;10.20;99.90;;;;;;5072855;28;20044;-70
2022/05/29 02:33:40;;;;;;;14.35;3.85;;;10.20;99.90;;;;;;5073240;28;20068;-71
2022/05/29 02:36:22;;;;;;;12.25;3.63;;;10.20;99.90;;;;;;5072862;28;20063;-70
2022/05/29 02:39:06;;;;;;;18.33;3.83;;;10.20;99.90;;;;;;5071958;28;20086;-70
2022/05/29 02:42:00;;;;;;;18.60;4.72;;;10.10;99.90;;;;;;5071255;28;20379;-70
2022/05/29 02:44:47;;;;;;;13.68;4.18;;;10.20;99.90;;;;;;5072683;28;20036;-70
2022/05/29 02:47:33;;;;;;;20.95;4.28;;;10.10;99.90;;;;;;5071475;28;20440;-70
2022/05/29 02:50:10;;;;;;;13.52;3.53;;;10.20;99.90;;;;;;5071160;28;20375;-70
2022/05/29 02:52:37;;;;;;;13.20;3.60;;;10.10;99.90;;;;;;5071331;28;20036;-70
2022/05/29 02:55:03;;;;;;;14.13;3.75;;;10.10;99.90;;;;;;5071249;28;20044;-70
2022/05/29 02:57:29;;;;;;;16.60;4.20;;;10.00;99.90;;;;;;5072491;28;20067;-70
2022/05/29 02:59:58;;;;;;;15.75;3.88;;;10.00;99.90;;;;;;5072166;28;20577;-70
2022/05/29 03:02:52;;;;;;;14.02;4.40;;;10.00;99.90;;;;;;5072533;28;20090;-71
2022/05/29 03:05:31;;;;;;;13.55;3.67;;;10.00;99.90;;;;;;5070690;28;20036;-71
2022/05/29 03:08:21;;;;;;;17.95;4.43;;;10.00;99.90;;;;;;5072486;28;20044;-71
2022/05/29 03:11:02;;;;;;;15.15;4.05;;;9.90;99.90;;;;;;5071982;28;20036;-71
2022/05/29 03:13:42;;;;;;;14.40;4.57;;;9.90;99.90;;;;;;5071279;28;20494;-71
2022/05/29 03:16:14;;;;;;;14.68;3.90;;;9.90;99.90;;;;;;5070969;28;20498;-71
2022/05/29 03:18:50;;;;;;;12.68;3.72;;;9.90;99.90;;;;;;5072125;28;20674;-70
2022/05/29 03:21:49;;;;;;;15.00;4.40;;;9.90;99.90;;;;;;5071793;28;20128;-70
2022/05/29 03:24:18;;;;;;;14.30;4.32;;;9.90;99.90;;;;;;5070817;28;20045;-71
2022/05/29 03:27:03;;;;;;;14.65;4.00;;;9.90;99.90;;;;;;5070864;28;20411;-71
2022/05/29 03:30:02;;;;;;;10.70;3.75;;;9.90;99.90;;;;;;5071001;28;20510;-70
2022/05/29 03:32:29;;;;;;;17.58;4.20;;;9.90;99.90;;;;;;5070528;28;20064;-71
2022/05/29 03:34:55;;;;;;;13.30;4.20;;;9.80;99.90;;;;;;5072047;28;20044;-71
2022/05/29 03:37:20;;;;;;;8.65;3.67;;;9.90;99.90;;;;;;5070605;28;20040;-71
2022/05/29 03:39:46;;;;;;;14.65;3.50;;;9.90;99.90;;;;;;5071738;28;20044;-70
2022/05/29 03:42:12;;;;;;;13.32;3.50;;;9.90;99.90;;;;;;5070479;28;20040;-71
2022/05/29 03:44:38;;;;;;;15.43;3.42;;;9.90;99.90;;;;;;5070433;28;20052;-71
2022/05/29 03:47:04;;;;;;;18.58;4.60;;;10.00;99.90;;;;;;5071640;28;20049;-71
2022/05/29 03:49:31;;;;;;;13.43;3.20;;;10.00;99.90;;;;;;5071854;28;20072;-70
2022/05/29 03:51:57;;;;;;;12.23;3.30;;;10.00;99.90;;;;;;5071514;28;20155;-71
2022/05/29 03:54:23;;;;;;;12.02;4.00;;;10.00;99.90;;;;;;5071716;28;20080;-70
2022/05/29 03:56:48;;;;;;;11.77;3.20;;;10.00;99.90;;;;;;5070603;28;20076;-70
2022/05/29 03:59:14;;;;;;;13.02;3.47;;;10.00;99.90;;;;;;5070384;28;20044;-70
2022/05/29 04:01:40;;;;;;;14.00;3.20;;;10.00;99.90;;;;;;5071249;28;20041;-70
2022/05/29 04:04:06;;;;;;;15.80;3.17;;;10.00;99.90;;;;;;5071623;28;20037;-70
2022/05/29 04:06:34;;;;;;;13.57;3.20;;;10.00;99.90;;;;;;5071700;28;20132;-70
2022/05/29 04:12:04;;;;;;;14.55;3.58;;;9.90;99.90;;;;;;5071199;28;20087;-71
2022/05/29 04:14:35;;;;;;;12.68;2.92;;;9.90;99.90;;;;;;5071539;28;20114;-71
2022/05/29 04:17:00;;;;;;;8.10;3.08;;;9.90;99.90;;;;;;5071542;28;20052;-70
2022/05/29 04:19:26;;;;;;;17.90;3.38;;;9.90;99.90;;;;;;5075678;28;20045;-70
2022/05/29 04:21:52;;;;;;;12.05;2.78;;;9.90;99.90;;;;;;5075235;28;20040;-70
2022/05/29 04:24:20;;;;;;;10.95;2.80;;;9.90;99.90;;;;;;5074048;28;20093;-70
2022/05/29 04:26:49;;;;;;;11.60;2.75;;;9.90;99.90;;;;;;5075558;28;20116;-70
2022/05/29 04:29:16;;;;;;;16.08;3.20;;;9.90;99.90;;;;;;5074384;28;20433;-71
2022/05/29 04:34:26;;;;;;;15.02;2.88;;;10.00;99.90;;;;;;5073968;28;20485;-71
2022/05/29 04:36:52;;;;;;;11.30;3.40;;;10.00;99.90;;;;;;5075105;28;20410;-70
2022/05/29 04:39:17;;;;;;;9.68;2.58;;;10.00;99.90;;;;;;5074065;28;20037;-70
2022/05/29 04:41:43;;;;;;;13.98;3.90;;;10.00;99.90;;;;;;5074926;28;20032;-70
2022/05/29 04:44:08;;;;;;;11.00;2.63;;;10.00;99.90;;;;;;5075035;28;20040;-71
2022/05/29 04:46:34;;;;;;;15.90;4.07;;;10.00;99.90;;;;;;5074926;28;20150;-70
2022/05/29 04:48:59;;;;;;;10.18;4.05;;;10.00;99.90;;;;;;5074989;28;20106;-71
2022/05/29 04:51:25;;;;;;;12.55;3.58;;;10.10;99.90;;;;;;5074525;28;20125;-70
2022/05/29 04:53:50;;;;;;;11.05;3.05;;;10.10;99.90;;;;;;5074856;28;20040;-71
2022/05/29 04:56:16;;;;;;;9.63;3.08;;;10.10;99.90;;;;;;5074854;28;20048;-70
2022/05/29 04:58:41;;;;;;;7.95;2.92;;;10.10;99.90;;;;;;5074848;28;20044;-70
2022/05/29 05:01:07;;;;;;;12.68;3.17;;;10.10;99.90;;;;;;5073039;28;20441;-70
2022/05/29 05:03:33;;;;;;;18.95;3.38;;;10.10;99.90;;;;;;5073427;28;20486;-70
2022/05/29 05:05:58;;;;;;;15.68;4.15;;;10.10;99.90;;;;;;5074405;28;20033;-70
2022/05/29 05:08:24;;;;;;;15.13;3.13;;;10.20;99.90;;;;;;5074739;28;20032;-70
2022/05/29 05:10:50;;;;;;;13.85;2.47;;;10.10;99.90;;;;;;5072858;28;20094;-70
2022/05/29 05:13:15;;;;;;;14.52;2.88;;;10.20;99.90;;;;;;5074677;28;20111;-70
2022/05/29 05:15:41;;;;;;;14.57;2.78;;;10.20;99.90;;;;;;5074643;28;20033;-70
2022/05/29 05:18:07;;;;;;;25.90;3.95;;;10.20;99.90;;;;;;5074382;28;20486;-70
2022/05/29 05:20:33;;;;;;;21.63;3.75;;;10.20;99.90;;;;;;5073970;28;20486;-70
2022/05/29 05:22:59;;;;;;;10.00;2.65;;;10.30;99.90;;;;;;5074169;28;20386;-70
2022/05/29 05:25:25;;;;;;;12.52;3.05;;;10.30;99.90;;;;;;5072979;28;20040;-70
2022/05/29 05:27:51;;;;;;;9.10;3.08;;;10.30;99.90;;;;;;5072373;28;20079;-70
2022/05/29 05:30:17;;;;;;;13.63;3.22;;;10.40;99.90;;;;;;5073866;28;20441;-70
2022/05/29 05:32:42;;;;;;;13.18;3.63;;;10.30;99.90;;;;;;5073159;28;20123;-70
2022/05/29 05:35:08;;;;;;;16.80;3.20;;;10.40;99.90;;;;;;5072720;28;20676;-70
2022/05/29 05:37:36;;;;;;;15.15;3.70;;;10.50;99.90;;;;;;5074178;28;20084;-70
2022/05/29 05:40:03;;;;;;;21.88;4.38;;;10.40;99.90;;;;;;5072702;28;20437;-70
2022/05/29 05:42:29;;;;;;;19.67;4.13;;;10.40;99.90;;;;;;5073955;28;20045;-70
2022/05/29 05:44:55;;;;;;;18.40;3.13;;;10.40;99.90;;;;;;5073958;28;20040;-70
2022/05/29 05:47:22;;;;;;;21.05;3.80;;;10.40;99.90;;;;;;5073816;28;20037;-70
2022/05/29 05:49:49;;;;;;;13.88;3.05;;;10.40;99.90;;;;;;5073613;28;20045;-70
2022/05/29 05:52:15;;;;;;;19.27;4.18;;;10.40;99.90;;;;;;5073662;28;20097;-70
2022/05/29 05:54:41;;;;;;;15.13;2.88;;;10.40;99.90;;;;;;5073764;28;20051;-70
2022/05/29 05:57:06;;;;;;;14.40;3.00;;;10.40;99.90;;;;;;5073625;28;20048;-70
2022/05/29 05:59:35;;;;;;;13.00;2.92;;;10.40;99.90;;;;;;5072254;28;20063;-70
2022/05/29 06:02:00;;;;;;;16.60;3.90;;;10.40;99.90;;;;;;5073330;28;20133;-70
2022/05/29 06:04:26;;;;;;;9.50;2.67;;;10.40;99.90;;;;;;5073385;28;20079;-70
2022/05/29 06:06:51;;;;;;;19.90;3.58;;;10.40;99.90;;;;;;5073279;28;20036;-70
2022/05/29 06:09:19;;;;;;;13.02;2.72;;;10.40;99.90;;;;;;5073308;28;20037;-71
2022/05/29 06:11:45;;;;;;;10.70;2.85;;;10.50;99.90;;;;;;5073135;28;20042;-70
2022/05/29 06:14:11;;;;;;;15.80;3.45;;;10.50;99.90;;;;;;5072030;28;20115;-70
2022/05/29 06:16:36;;;;;;;13.15;2.72;;;10.60;99.90;;;;;;5073217;28;20066;-70
2022/05/29 06:19:04;;;;;;;13.43;2.90;;;10.70;99.90;;;;;;5073077;28;20120;-70
2022/05/29 06:21:30;;;;;;;17.92;3.10;;;10.70;99.90;;;;;;5071507;28;20036;-70
2022/05/29 06:23:56;;;;;;;14.55;3.67;;;10.70;99.90;;;;;;5071871;28;20043;-70
2022/05/29 06:26:22;;;;;;;10.05;3.33;;;10.70;99.90;;;;;;5073128;28;20044;-70
2022/05/29 06:28:48;;;;;;;11.65;2.90;;;10.70;99.90;;;;;;5072999;28;20041;-70
2022/05/29 06:31:13;;;;;;;19.02;2.83;;;10.80;99.90;;;;;;5072413;28;20098;-70
2022/05/29 06:33:39;;;;;;;12.52;2.72;;;10.80;99.90;;;;;;5072782;28;20066;-71
2022/05/29 06:36:21;;;;;;;15.93;3.53;;;10.90;99.90;;;;;;5072634;28;20041;-70
2022/05/29 06:38:47;;;;;;;14.48;3.28;;;11.00;99.90;;;;;;5072576;28;20095;-70
2022/05/29 06:41:16;;;;;;;13.80;2.83;;;11.00;99.90;;;;;;5071799;28;20047;-70
2022/05/29 06:43:41;;;;;;;19.88;2.75;;;11.10;99.90;;;;;;5071416;28;20040;-70
2022/05/29 06:46:09;;;;;;;8.52;2.28;;;11.10;99.90;;;;;;5071172;28;20094;-70
2022/05/29 06:48:37;;;;;;;8.73;2.60;;;11.10;99.90;;;;;;5062825;28;20036;-70
2022/05/29 06:51:06;;;;;;;14.90;3.25;;;11.10;99.90;;;;;;5066906;28;20132;-69
2022/05/29 06:53:32;;;;;;;9.10;2.28;;;11.10;99.90;;;;;;5068497;28;20028;-69
2022/05/29 06:55:58;;;;;;;11.40;2.63;;;11.20;99.90;;;;;;5072238;28;20165;-69
2022/05/29 06:58:24;;;;;;;7.75;1.95;;;11.10;99.90;;;;;;5072114;28;20090;-69
2022/05/29 07:09:04;;;;;;;8.55;2.22;;;10.90;99.90;;;;;;5070996;28;20126;-69
2022/05/29 07:11:35;;;;;;;17.00;2.45;;;10.90;99.90;;;;;;5070549;28;20029;-69
2022/05/29 07:14:04;;;;;;;8.18;2.53;;;10.90;99.90;;;;;;5072091;28;20044;-69
2022/05/29 07:16:30;;;;;;;9.25;3.13;;;10.90;99.90;;;;;;5070409;28;20054;-69
2022/05/29 07:18:56;;;;;;;8.77;2.30;;;10.90;99.90;;;;;;5071753;28;20040;-69
2022/05/29 07:21:22;;;;;;;10.48;2.22;;;10.90;99.90;;;;;;5070241;28;20093;-70
2022/05/29 07:23:48;;;;;;;16.40;3.00;;;10.90;99.90;;;;;;5072095;28;20048;-69
2022/05/29 07:26:13;;;;;;;14.85;2.85;;;10.90;99.90;;;;;;5071914;28;20051;-69
2022/05/29 07:28:39;;;;;;;10.45;2.08;;;10.90;99.90;;;;;;5071823;28;20437;-69
2022/05/29 07:31:04;;;;;;;12.40;2.20;;;10.90;99.90;;;;;;5071403;28;20039;-69
2022/05/29 07:33:30;;;;;;;9.32;1.77;;;10.90;99.90;;;;;;5071637;28;20413;-69
2022/05/29 07:35:56;;;;;;;9.23;2.15;;;10.80;99.90;;;;;;5071574;28;20037;-69
2022/05/29 07:38:22;;;;;;;7.47;1.40;;;10.80;99.90;;;;;;5071829;28;20490;-69
2022/05/29 07:40:48;;;;;;;8.32;1.67;;;10.70;99.90;;;;;;5071209;28;20502;-69
2022/05/29 07:43:22;;;;;;;7.25;1.85;;;10.60;99.90;;;;;;5070392;28;20062;-69
2022/05/29 07:45:49;;;;;;;7.78;1.52;;;10.60;99.90;;;;;;5071712;28;20048;-69
2022/05/29 07:48:16;;;;;;;11.35;2.25;;;10.40;99.90;;;;;;5070059;28;20512;-69
2022/05/29 07:50:42;;;;;;;12.07;2.22;;;10.30;99.90;;;;;;5070913;28;20044;-69
2022/05/29 07:53:08;;;;;;;11.13;1.92;;;10.30;99.90;;;;;;5071653;28;20040;-69
2022/05/29 07:55:37;;;;;;;14.73;2.60;;;10.30;99.90;;;;;;5071428;28;20048;-69
2022/05/29 07:58:06;;;;;;;9.77;2.33;;;10.40;99.90;;;;;;5071357;28;20494;-69
2022/05/29 08:00:33;;;;;;;8.15;2.08;;;10.50;99.90;;;;;;5067626;28;20134;-70
2022/05/29 08:02:58;;;;;;;8.07;1.83;;;10.50;99.90;;;;;;5076645;28;20103;-70
2022/05/29 08:05:25;;;;;;;10.02;2.08;;;10.60;99.90;;;;;;5077101;28;20478;-69
2022/05/29 08:07:51;;;;;;;5.55;2.03;;;10.70;99.90;;;;;;5071385;28;20045;-69
2022/05/29 08:10:19;;;;;;;5.80;1.58;;;10.90;99.90;;;;;;5071173;28;20064;-69
2022/05/29 08:12:44;;;;;;;6.28;1.60;;;11.00;99.90;;;;;;5071463;28;20064;-69
2022/05/29 08:15:11;;;;;;;8.02;2.00;;;11.20;99.90;;;;;;5071279;28;20079;-69
2022/05/29 08:17:37;;;;;;;5.18;1.65;;;11.20;99.90;;;;;;5071224;28;20036;-69
2022/05/29 08:20:04;;;;;;;11.35;2.00;;;11.20;99.90;;;;;;5071202;28;20056;-69
2022/05/29 08:22:30;;;;;;;4.80;1.40;;;11.30;99.90;;;;;;5071225;28;20127;-69
2022/05/29 08:30:37;;;;;;;6.35;1.60;;;11.20;99.90;;;;;;5070938;28;20131;-69
2022/05/29 08:33:05;;;;;;;6.20;1.60;;;11.20;99.90;;;;;;5071439;28;20094;-69
2022/05/29 08:35:32;;;;;;;7.20;1.42;;;11.10;99.90;;;;;;5071363;28;20101;-69
2022/05/29 08:38:00;;;;;;;10.10;1.70;;;11.10;99.90;;;;;;5071331;28;20043;-69
2022/05/29 08:40:26;;;;;;;7.75;1.50;;;11.10;99.90;;;;;;5070801;28;20041;-69
2022/05/29 08:42:52;;;;;;;13.25;1.75;;;10.90;99.90;;;;;;5071061;28;20060;-70
2022/05/29 08:45:18;;;;;;;8.77;2.60;;;10.90;99.90;;;;;;5071354;28;20083;-69
2022/05/29 08:47:46;;;;;;;6.78;2.20;;;10.90;99.90;;;;;;5071116;28;20045;-70
2022/05/29 08:50:44;;;;;;;7.85;2.08;;;10.80;99.90;;;;;;5069498;28;20041;-70
2022/05/29 08:53:25;;;;;;;9.27;2.50;;;10.80;99.90;;;;;;5070935;28;20036;-70
2022/05/29 08:56:02;;;;;;;6.82;2.28;;;10.90;99.90;;;;;;5070153;28;20379;-69
2022/05/29 08:59:04;;;;;;;17.45;2.28;;;11.00;99.90;;;;;;5071156;28;20449;-70
2022/05/29 09:01:59;;;;;;;7.72;1.63;;;11.10;99.90;;;;;;5070450;28;20232;-69
2022/05/29 09:04:31;;;;;;;17.33;2.15;;;11.20;99.90;;;;;;5073154;28;20111;-70
2022/05/29 09:06:59;;;;;;;6.57;1.75;;;11.30;99.90;;;;;;5073312;28;20044;-69
2022/05/29 09:09:38;;;;;;;12.35;2.88;;;11.50;99.90;;;;;;5063953;28;20159;-70
2022/05/29 09:12:09;;;;;;;8.55;1.85;;;11.50;99.90;;;;;;5052300;28;20048;-69
2022/05/29 09:14:57;;;;;;;5.55;1.30;;;11.70;99.90;;;;;;5064174;28;20055;-69
2022/05/29 09:17:35;;;;;;;5.68;1.50;;;11.60;99.90;;;;;;5074188;28;20041;-69
2022/05/29 09:20:15;;;;;;;7.70;1.27;;;11.60;99.90;;;;;;5058663;28;20169;-69
2022/05/29 09:22:46;;;;;;;4.18;1.00;;;11.60;99.90;;;;;;5074409;28;20068;-69
2022/05/29 09:25:27;;;;;;;6.80;1.15;;;11.60;99.90;;;;;;5074380;28;20040;-69
2022/05/29 09:27:52;;;;;;;10.45;1.40;;;11.60;99.90;;;;;;5074113;28;20036;-69
2022/05/29 09:30:18;;;;;;;5.40;1.05;;;11.60;99.90;;;;;;5063162;28;20051;-68
2022/05/29 09:32:53;;;;;;;5.88;1.73;;;11.50;99.90;;;;;;5054523;28;20051;-69
2022/05/29 09:35:51;;;;;;;7.68;1.52;;;11.20;99.90;;;;;;5074080;28;20044;-69
2022/05/29 09:38:45;;;;;;;10.85;2.03;;;11.00;99.90;;;;;;5074108;28;20058;-69
2022/05/29 09:41:45;;;;;;;8.25;1.45;;;11.00;99.90;;;;;;5073402;28;20048;-69
2022/05/29 09:44:20;;;;;;;8.07;1.40;;;11.10;99.90;;;;;;5074134;28;20047;-69
2022/05/29 09:46:50;;;;;;;8.50;1.90;;;11.10;99.90;;;;;;5073667;28;20040;-68
2022/05/29 09:52:22;;;;;;;6.38;1.58;;;11.30;99.90;;;;;;5073614;28;20111;-69
2022/05/29 09:54:52;;;;;;;4.93;1.20;;;11.50;99.90;;;;;;5073617;28;20034;-69
2022/05/29 09:57:27;;;;;;;7.75;1.90;;;11.70;99.90;;;;;;5073555;28;20037;-69
2022/05/29 10:00:08;;;;;;;5.35;1.83;;;11.70;99.90;;;;;;5072031;28;20071;-70
2022/05/29 10:02:40;;;;;;;5.65;1.17;;;11.90;99.90;;;;;;5073743;28;20055;-69
2022/05/29 10:05:19;;;;;;;5.78;1.27;;;12.00;99.90;;;;;;5073584;28;20146;-70
2022/05/29 10:07:47;;;;;;;6.53;1.48;;;12.10;99.90;;;;;;5073320;28;20684;-70
2022/05/29 10:10:34;;;;;;;12.48;1.48;;;12.10;99.90;;;;;;5072876;28;20040;-70
2022/05/29 10:13:01;;;;;;;7.78;1.50;;;12.20;99.90;;;;;;5073507;28;20072;-70
2022/05/29 10:15:27;;;;;;;7.75;1.58;;;12.30;99.90;;;;;;5072033;28;20039;-70
2022/05/29 10:18:27;;;;;;;5.47;1.00;;;12.30;99.90;;;;;;5073245;28;20044;-70
2022/05/29 10:20:55;;;;;;;7.40;1.40;;;12.40;99.90;;;;;;5072627;28;20083;-69
2022/05/29 10:23:34;;;;;;;5.43;1.33;;;12.40;99.90;;;;;;5073034;28;20518;-69
2022/05/29 10:26:10;;;;;;;6.85;1.40;;;12.30;99.90;;;;;;5073142;28;20068;-69
2022/05/29 10:28:38;;;;;;;9.10;1.85;;;12.20;99.90;;;;;;5073196;28;20416;-69
2022/05/29 10:31:12;;;;;;;5.30;1.33;;;12.20;99.90;;;;;;5071149;28;20116;-70
2022/05/29 10:33:38;;;;;;;11.20;2.97;;;12.20;99.90;;;;;;5073011;28;20032;-69
2022/05/29 10:36:08;;;;;;;10.45;1.55;;;12.20;99.90;;;;;;5072843;28;20070;-69
2022/05/29 10:38:35;;;;;;;6.55;1.48;;;12.20;99.90;;;;;;5072864;28;20052;-69
2022/05/29 10:41:03;;;;;;;7.38;1.70;;;12.00;99.90;;;;;;5072223;28;20047;-69
2022/05/29 10:43:54;;;;;;;8.48;2.15;;;12.10;99.90;;;;;;5072597;28;20115;-70
2022/05/29 10:47:05;;;;;;;11.55;1.90;;;12.20;99.90;;;;;;5072490;28;20445;-70
2022/05/29 10:49:39;;;;;;;7.03;1.50;;;12.10;99.90;;;;;;5068619;28;20123;-69
2022/05/29 10:52:44;;;;;;;7.03;2.45;;;12.00;99.90;;;;;;5072110;28;20036;-70
2022/05/29 10:55:24;;;;;;;5.50;1.30;;;12.00;99.90;;;;;;5060408;28;20517;-69
2022/05/29 10:58:08;;;;;;;7.95;1.70;;;12.10;99.90;;;;;;5072510;28;20036;-69
2022/05/29 11:00:58;;;;;;;13.27;2.17;;;12.20;99.90;;;;;;5072143;28;20470;-69
2022/05/29 11:03:46;;;;;;;10.13;2.25;;;12.00;99.90;;;;;;5072500;28;20428;-69
2022/05/29 11:06:46;;;;;;;6.75;1.85;;;11.90;99.90;;;;;;5072137;28;20450;-69
2022/05/29 11:09:34;;;;;;;5.90;1.60;;;11.80;99.90;;;;;;5072253;28;20045;-69
2022/05/29 11:12:28;;;;;;;10.30;1.40;;;11.60;99.90;;;;;;5071961;28;20039;-69
2022/05/29 11:15:17;;;;;;;7.13;1.73;;;11.50;99.90;;;;;;5072028;28;20435;-69
2022/05/29 11:18:20;;;;;;;6.65;1.45;;;11.50;99.90;;;;;;5061184;28;20111;-69
2022/05/29 11:20:59;;;;;;;11.15;2.05;;;11.70;99.90;;;;;;5001061;28;20463;-69
2022/05/29 11:23:45;;;;;;;10.77;2.50;;;11.80;99.90;;;;;;5052370;28;20040;-69
2022/05/29 11:26:19;;;;;;;10.32;1.90;;;12.10;99.90;;;;;;5051805;28;20048;-69
2022/05/29 11:29:07;;;;;;;11.80;1.40;;;12.30;99.90;;;;;;5052027;28;20041;-69
2022/05/29 11:31:53;;;;;;;8.93;1.42;;;12.40;99.90;;;;;;5051098;28;20045;-70
2022/05/29 11:34:26;;;;;;;8.52;2.17;;;12.30;99.90;;;;;;5050584;28;20041;-69
2022/05/29 11:37:13;;;;;;;7.23;1.67;;;12.20;99.90;;;;;;5052103;28;20041;-69
2022/05/29 11:39:47;;;;;;;6.40;1.70;;;12.00;99.90;;;;;;5051608;28;20586;-69
2022/05/29 11:42:27;;;;;;;5.68;1.65;;;11.90;99.90;;;;;;5051565;28;20041;-69
2022/05/29 11:45:16;;;;;;;9.18;2.05;;;11.80;99.90;;;;;;5051829;28;20045;-69
2022/05/29 11:51:27;;;;;;;5.85;1.52;;;11.70;99.90;;;;;;5051274;28;20076;-70
2022/05/29 11:54:00;;;;;;;10.43;2.63;;;11.90;99.90;;;;;;5046128;28;20110;-69
2022/05/29 11:56:37;;;;;;;7.70;1.88;;;12.10;99.90;;;;;;5051854;28;20402;-69
2022/05/29 11:59:25;;;;;;;6.85;2.00;;;12.20;99.90;;;;;;5051877;28;20062;-70
2022/05/29 12:02:03;;;;;;;7.47;2.00;;;12.40;99.90;;;;;;5051196;28;20037;-69
2022/05/29 12:04:40;;;;;;;5.57;1.40;;;12.70;99.90;;;;;;5051749;28;20087;-69
2022/05/29 12:07:21;;;;;;;8.48;1.48;;;12.80;99.90;;;;;;5051357;28;20454;-69
2022/05/29 12:10:06;;;;;;;10.05;1.92;;;12.70;99.90;;;;;;5051435;28;20434;-69
2022/05/29 12:12:40;;;;;;;9.02;1.77;;;12.70;99.90;;;;;;5050483;28;20044;-69
2022/05/29 12:15:21;;;;;;;6.32;1.77;;;12.70;99.90;;;;;;5051638;28;20395;-69
2022/05/29 12:17:55;;;;;;;9.15;2.03;;;12.60;99.90;;;;;;5050303;28;20495;-69
2022/05/29 12:20:55;;;;;;;7.82;1.45;;;12.60;99.90;;;;;;5051304;28;20041;-69
2022/05/29 12:23:27;;;;;;;10.80;2.00;;;12.40;99.90;;;;;;5051049;28;20037;-69
2022/05/29 12:26:00;;;;;;;10.98;2.80;;;12.20;99.90;;;;;;5051381;28;20076;-69
2022/05/29 12:28:29;;;;;;;7.80;1.73;;;12.10;99.90;;;;;;5051408;28;20083;-69
2022/05/29 12:30:55;;;;;;;6.97;1.98;;;12.00;99.90;;;;;;5051186;28;20120;-69
2022/05/29 12:33:24;;;;;;;11.50;1.88;;;11.90;99.90;;;;;;5051461;28;20040;-69
2022/05/29 12:36:29;;;;;;;10.63;2.13;;;11.80;99.90;;;;;;5051319;28;20048;-69
2022/05/29 12:39:10;;;;;;;12.35;1.85;;;11.80;99.90;;;;;;5054204;28;20463;-69
2022/05/29 12:41:41;;;;;;;11.15;2.17;;;11.80;99.90;;;;;;5054574;28;20033;-68
2022/05/29 12:44:23;;;;;;;7.90;1.70;;;11.80;99.90;;;;;;5055205;28;20481;-69
2022/05/29 12:46:56;;;;;;;8.45;2.17;;;11.90;99.90;;;;;;5055042;28;20051;-69
2022/05/29 12:49:33;;;;;;;5.88;1.40;;;11.90;99.90;;;;;;5055349;28;20071;-69
2022/05/29 12:52:21;;;;;;;7.35;2.45;;;11.60;99.90;;;;;;5054840;28;20406;-69
2022/05/29 12:55:15;;;;;;;9.25;2.00;;;11.40;99.90;;;;;;5054931;28;20540;-69
2022/05/29 12:58:08;;;;;;;5.38;1.60;;;11.30;99.90;;;;;;5059639;28;20080;-69
2022/05/29 13:01:03;;;;;;;6.25;1.40;;;11.20;99.90;;;;;;5071065;28;20115;-70
2022/05/29 13:03:56;;;;;;;7.07;1.50;;;11.30;99.90;;;;;;5074552;28;20051;-70
2022/05/29 13:06:59;;;;;;;8.15;2.00;;;11.40;99.90;;;;;;5073813;28;20448;-70
2022/05/29 13:09:45;;;;;;;6.90;2.00;;;11.60;99.90;;;;;;5074172;28;20068;-69
2022/05/29 13:12:18;;;;;;;4.45;1.58;;;11.80;99.90;;;;;;5074607;28;20595;-69
2022/05/29 13:14:56;;;;;;;7.68;2.05;;;12.00;99.90;;;;;;5075254;28;20040;-70
2022/05/29 13:17:32;;;;;;;7.28;2.03;;;12.30;99.90;;;;;;5073779;28;20052;-69
2022/05/29 13:19:57;;;;;;;12.40;1.95;;;12.40;99.90;;;;;;5074371;28;20074;-69
2022/05/29 13:22:47;;;;;;;8.52;2.03;;;12.50;99.90;;;;;;5073159;28;20044;-69
2022/05/29 13:25:15;;;;;;;10.15;1.88;;;12.30;99.90;;;;;;5062656;28;20123;-69
2022/05/29 13:27:41;;;;;;;9.65;2.58;;;12.30;99.90;;;;;;5074311;28;20182;-69
2022/05/29 13:30:27;;;;;;;12.98;1.98;;;12.30;99.90;;;;;;5073898;28;20045;-69
2022/05/29 13:33:34;;;;;;;8.90;2.38;;;12.20;99.90;;;;;;5074568;28;20037;-69
2022/05/29 13:35:59;;;;;;;11.48;2.05;;;12.20;99.90;;;;;;5074284;28;20040;-69
2022/05/29 13:38:44;;;;;;;6.53;1.85;;;12.20;99.90;;;;;;5074211;28;20052;-69
2022/05/29 13:41:30;;;;;;;7.03;2.15;;;12.20;99.90;;;;;;5073818;28;20502;-69